sensor_id;sensor_type;location;lat;lon;timestamp;temperature;humidity
39095;DHT22;24840;47.508;19.376;2022-09-03T00:00:01;12.70;99.90
39095;DHT22;24840;47.508;19.376;2022-09-03T00:02:52;12.80;99.90
39095;DHT22;24840;47.508;19.376;2022-09-03T00:05:43;12.70;99.90
39095;DHT22;24840;47.508;19.376;2022-09-03T00:14:36;12.60;99.90
39095;DHT22;24840;47.508;19.376;2022-09-03T00:17:30;12.70;99.90
39095;DHT22;24840;47.508;19.376;2022-09-03T00:20:06;12.70;99.90
39095;DHT22;24840;47.508;19.376;2022-09-03T00:22:38;12.70;99.90
39095;DHT22;24840;47.508;19.376;2022-09-03T00:25:08;12.60;99.90
39095;DHT22;24840;47.508;19.376;2022-09-03T00:27:39;12.60;99.90
39095;DHT22;24840;47.508;19.376;2022-09-03T00:30:12;12.80;99.90
39095;DHT22;24840;47.508;19.376;2022-09-03T00:32:44;12.70;99.90
39095;DHT22;24840;47.508;19.376;2022-09-03T00:35:17;12.70;99.90
39095;DHT22;24840;47.508;19.376;2022-09-03T00:37:47;12.60;99.90
39095;DHT22;24840;47.508;19.376;2022-09-03T00:49:43;12.70;99.90
39095;DHT22;24840;47.508;19.376;2022-09-03T00:55:01;12.80;99.90
39095;DHT22;24840;47.508;19.376;2022-09-03T00:57:44;12.80;99.90
39095;DHT22;24840;47.508;19.376;2022-09-03T01:00:14;12.70;99.90
39095;DHT22;24840;47.508;19.376;2022-09-03T01:17:42;12.50;99.90
39095;DHT22;24840;47.508;19.376;2022-09-03T01:29:07;12.50;99.90
39095;DHT22;24840;47.508;19.376;2022-09-03T01:47:57;12.50;99.90
39095;DHT22;24840;47.508;19.376;2022-09-03T02:04:23;12.40;99.90
39095;DHT22;24840;47.508;19.376;2022-09-03T02:09:41;12.40;99.90
39095;DHT22;24840;47.508;19.376;2022-09-03T02:12:13;12.40;99.90
39095;DHT22;24840;47.508;19.376;2022-09-03T02:14:40;12.40;99.90
39095;DHT22;24840;47.508;19.376;2022-09-03T02:17:16;12.40;99.90
39095;DHT22;24840;47.508;19.376;2022-09-03T02:19:42;12.40;99.90
39095;DHT22;24840;47.508;19.376;2022-09-03T02:22:08;12.40;99.90
39095;DHT22;24840;47.508;19.376;2022-09-03T02:24:34;12.50;99.90
39095;DHT22;24840;47.508;19.376;2022-09-03T02:27:33;12.50;99.90
39095;DHT22;24840;47.508;19.376;2022-09-03T02:29:59;12.50;99.90
39095;DHT22;24840;47.508;19.376;2022-09-03T02:32:27;12.40;99.90
39095;DHT22;24840;47.508;19.376;2022-09-03T02:34:53;12.40;99.90
39095;DHT22;24840;47.508;19.376;2022-09-03T02:37:25;12.50;99.90
39095;DHT22;24840;47.508;19.376;2022-09-03T02:39:51;12.50;99.90
39095;DHT22;24840;47.508;19.376;2022-09-03T02:42:17;12.40;99.90
39095;DHT22;24840;47.508;19.376;2022-09-03T02:44:58;12.30;99.90
39095;DHT22;24840;47.508;19.376;2022-09-03T02:47:30;12.30;99.90
39095;DHT22;24840;47.508;19.376;2022-09-03T02:49:57;12.30;99.90
39095;DHT22;24840;47.508;19.376;2022-09-03T02:52:23;12.20;99.90
39095;DHT22;24840;47.508;19.376;2022-09-03T02:54:49;12.10;99.90
39095;DHT22;24840;47.508;19.376;2022-09-03T03:00:53;12.10;99.90
39095;DHT22;24840;47.508;19.376;2022-09-03T03:03:19;12.00;99.90
39095;DHT22;24840;47.508;19.376;2022-09-03T03:09:07;12.10;99.90
39095;DHT22;24840;47.508;19.376;2022-09-03T03:11:33;12.10;99.90
39095;DHT22;24840;47.508;19.376;2022-09-03T03:14:01;12.00;99.90
39095;DHT22;24840;47.508;19.376;2022-09-03T03:16:31;11.90;99.90
39095;DHT22;24840;47.508;19.376;2022-09-03T03:18:57;11.90;99.90
39095;DHT22;24840;47.508;19.376;2022-09-03T03:21:24;11.90;99.90
39095;DHT22;24840;47.508;19.376;2022-09-03T03:23:51;11.80;99.90
39095;DHT22;24840;47.508;19.376;2022-09-03T03:26:20;11.90;99.90
39095;DHT22;24840;47.508;19.376;2022-09-03T03:28:49;11.80;99.90
39095;DHT22;24840;47.508;19.376;2022-09-03T03:31:20;11.70;99.90
39095;DHT22;24840;47.508;19.376;2022-09-03T03:33:54;11.70;99.90
39095;DHT22;24840;47.508;19.376;2022-09-03T03:39:37;11.70;99.90
39095;DHT22;24840;47.508;19.376;2022-09-03T03:42:03;11.70;99.90
39095;DHT22;24840;47.508;19.376;2022-09-03T03:44:29;11.60;99.90
39095;DHT22;24840;47.508;19.376;2022-09-03T03:46:59;11.60;99.90
39095;DHT22;24840;47.508;19.376;2022-09-03T03:49:25;11.50;99.90
39095;DHT22;24840;47.508;19.376;2022-09-03T03:51:51;11.50;99.90
39095;DHT22;24840;47.508;19.376;2022-09-03T03:54:17;11.50;99.90
39095;DHT22;24840;47.508;19.376;2022-09-03T03:56:48;11.50;99.90
39095;DHT22;24840;47.508;19.376;2022-09-03T03:59:14;11.60;99.90
39095;DHT22;24840;47.508;19.376;2022-09-03T04:01:40;11.50;99.90
39095;DHT22;24840;47.508;19.376;2022-09-03T04:04:06;11.50;99.90
39095;DHT22;24840;47.508;19.376;2022-09-03T04:06:33;11.50;99.90
39095;DHT22;24840;47.508;19.376;2022-09-03T04:08:59;11.50;99.90
39095;DHT22;24840;47.508;19.376;2022-09-03T04:11:25;11.50;99.90
39095;DHT22;24840;47.508;19.376;2022-09-03T04:13:52;11.50;99.90
39095;DHT22;24840;47.508;19.376;2022-09-03T04:19:49;11.50;99.90
39095;DHT22;24840;47.508;19.376;2022-09-03T04:22:15;11.50;99.90
39095;DHT22;24840;47.508;19.376;2022-09-03T04:24:43;11.50;99.90
39095;DHT22;24840;47.508;19.376;2022-09-03T04:27:33;11.40;99.90
39095;DHT22;24840;47.508;19.376;2022-09-03T04:29:59;11.40;99.90
39095;DHT22;24840;47.508;19.376;2022-09-03T04:32:26;11.30;99.90
39095;DHT22;24840;47.508;19.376;2022-09-03T04:35:10;11.30;99.90
39095;DHT22;24840;47.508;19.376;2022-09-03T04:37:36;11.40;99.90
39095;DHT22;24840;47.508;19.376;2022-09-03T04:40:03;11.40;99.90
39095;DHT22;24840;47.508;19.376;2022-09-03T04:42:29;11.50;99.90
39095;DHT22;24840;47.508;19.376;2022-09-03T04:44:55;11.40;99.90
39095;DHT22;24840;47.508;19.376;2022-09-03T04:50:46;11.60;99.90
39095;DHT22;24840;47.508;19.376;2022-09-03T04:53:12;11.50;99.90
39095;DHT22;24840;47.508;19.376;2022-09-03T05:02:33;11.30;99.90
39095;DHT22;24840;47.508;19.376;2022-09-03T05:04:59;11.40;99.90
39095;DHT22;24840;47.508;19.376;2022-09-03T05:10:37;11.40;99.90
39095;DHT22;24840;47.508;19.376;2022-09-03T05:13:04;11.50;99.90
39095;DHT22;24840;47.508;19.376;2022-09-03T05:19:12;11.50;99.90
39095;DHT22;24840;47.508;19.376;2022-09-03T05:21:39;11.50;99.90
39095;DHT22;24840;47.508;19.376;2022-09-03T05:24:05;11.60;99.90
39095;DHT22;24840;47.508;19.376;2022-09-03T05:33:22;11.70;99.90
39095;DHT22;24840;47.508;19.376;2022-09-03T05:36:06;11.90;99.90
39095;DHT22;24840;47.508;19.376;2022-09-03T05:38:32;12.00;99.90
39095;DHT22;24840;47.508;19.376;2022-09-03T05:41:00;12.10;99.90
39095;DHT22;24840;47.508;19.376;2022-09-03T05:43:30;12.30;99.90
39095;DHT22;24840;47.508;19.376;2022-09-03T05:46:03;12.40;99.90
39095;DHT22;24840;47.508;19.376;2022-09-03T05:48:31;12.50;99.90
39095;DHT22;24840;47.508;19.376;2022-09-03T05:51:04;12.70;99.90
39095;DHT22;24840;47.508;19.376;2022-09-03T05:53:37;12.80;99.90
39095;DHT22;24840;47.508;19.376;2022-09-03T05:59:40;13.10;99.90
39095;DHT22;24840;47.508;19.376;2022-09-03T06:02:06;13.30;99.90
39095;DHT22;24840;47.508;19.376;2022-09-03T06:04:32;13.40;99.90
39095;DHT22;24840;47.508;19.376;2022-09-03T06:07:07;13.60;99.90
39095;DHT22;24840;47.508;19.376;2022-09-03T06:09:33;13.80;99.90
39095;DHT22;24840;47.508;19.376;2022-09-03T06:11:59;14.00;99.90
39095;DHT22;24840;47.508;19.376;2022-09-03T06:14:25;14.30;99.90
39095;DHT22;24840;47.508;19.376;2022-09-03T06:17:05;14.50;99.90
39095;DHT22;24840;47.508;19.376;2022-09-03T06:19:31;14.80;99.90
39095;DHT22;24840;47.508;19.376;2022-09-03T06:21:57;15.00;99.90
39095;DHT22;24840;47.508;19.376;2022-09-03T06:24:23;15.20;99.90
39095;DHT22;24840;47.508;19.376;2022-09-03T06:26:59;15.50;99.90
39095;DHT22;24840;47.508;19.376;2022-09-03T06:29:26;15.70;99.90
39095;DHT22;24840;47.508;19.376;2022-09-03T06:31:52;15.90;99.90
39095;DHT22;24840;47.508;19.376;2022-09-03T06:34:18;16.20;99.90
39095;DHT22;24840;47.508;19.376;2022-09-03T06:36:59;16.40;99.90
39095;DHT22;24840;47.508;19.376;2022-09-03T06:39:25;16.70;99.90
39095;DHT22;24840;47.508;19.376;2022-09-03T06:41:51;17.10;99.90
39095;DHT22;24840;47.508;19.376;2022-09-03T06:44:18;17.30;99.90
39095;DHT22;24840;47.508;19.376;2022-09-03T06:46:46;17.60;99.90
39095;DHT22;24840;47.508;19.376;2022-09-03T06:49:13;18.00;99.90
39095;DHT22;24840;47.508;19.376;2022-09-03T06:51:39;18.20;99.90
39095;DHT22;24840;47.508;19.376;2022-09-03T06:54:07;18.40;99.90
39095;DHT22;24840;47.508;19.376;2022-09-03T06:56:37;18.50;99.90
39095;DHT22;24840;47.508;19.376;2022-09-03T06:59:08;18.60;99.90
39095;DHT22;24840;47.508;19.376;2022-09-03T07:01:35;18.70;99.90
39095;DHT22;24840;47.508;19.376;2022-09-03T07:04:06;19.00;99.90
39095;DHT22;24840;47.508;19.376;2022-09-03T07:07:06;19.20;99.90
39095;DHT22;24840;47.508;19.376;2022-09-03T07:09:38;19.60;99.80
39095;DHT22;24840;47.508;19.376;2022-09-03T07:12:04;20.00;99.90
39095;DHT22;24840;47.508;19.376;2022-09-03T07:14:31;20.10;98.00
39095;DHT22;24840;47.508;19.376;2022-09-03T07:17:01;20.10;95.80
39095;DHT22;24840;47.508;19.376;2022-09-03T07:19:27;19.90;95.50
39095;DHT22;24840;47.508;19.376;2022-09-03T07:21:53;20.00;95.00
39095;DHT22;24840;47.508;19.376;2022-09-03T07:24:19;20.30;96.40
39095;DHT22;24840;47.508;19.376;2022-09-03T07:26:55;20.80;94.40
39095;DHT22;24840;47.508;19.376;2022-09-03T07:29:22;20.90;94.90
39095;DHT22;24840;47.508;19.376;2022-09-03T07:31:49;21.30;93.40
39095;DHT22;24840;47.508;19.376;2022-09-03T07:34:15;21.50;94.00
39095;DHT22;24840;47.508;19.376;2022-09-03T07:37:00;21.90;93.60
39095;DHT22;24840;47.508;19.376;2022-09-03T07:39:27;21.80;91.80
39095;DHT22;24840;47.508;19.376;2022-09-03T07:41:52;21.80;91.60
39095;DHT22;24840;47.508;19.376;2022-09-03T07:44:19;22.00;92.20
39095;DHT22;24840;47.508;19.376;2022-09-03T07:46:55;22.40;90.60
39095;DHT22;24840;47.508;19.376;2022-09-03T07:49:21;22.50;90.50
39095;DHT22;24840;47.508;19.376;2022-09-03T07:51:47;22.60;89.90
39095;DHT22;24840;47.508;19.376;2022-09-03T07:54:16;22.30;87.50
39095;DHT22;24840;47.508;19.376;2022-09-03T07:56:42;22.10;86.40
39095;DHT22;24840;47.508;19.376;2022-09-03T07:59:08;22.30;88.30
39095;DHT22;24840;47.508;19.376;2022-09-03T08:01:36;22.50;87.10
39095;DHT22;24840;47.508;19.376;2022-09-03T08:04:03;22.50;90.10
39095;DHT22;24840;47.508;19.376;2022-09-03T08:06:37;23.00;85.80
39095;DHT22;24840;47.508;19.376;2022-09-03T08:09:06;23.10;84.00
39095;DHT22;24840;47.508;19.376;2022-09-03T08:11:36;23.40;84.80
39095;DHT22;24840;47.508;19.376;2022-09-03T08:14:07;24.20;83.10
39095;DHT22;24840;47.508;19.376;2022-09-03T08:16:40;23.30;81.30
39095;DHT22;24840;47.508;19.376;2022-09-03T08:19:07;23.80;81.20
39095;DHT22;24840;47.508;19.376;2022-09-03T08:21:33;24.60;80.70
39095;DHT22;24840;47.508;19.376;2022-09-03T08:23:59;25.20;80.20
39095;DHT22;24840;47.508;19.376;2022-09-03T08:26:39;25.00;76.00
39095;DHT22;24840;47.508;19.376;2022-09-03T08:29:06;24.40;77.50
39095;DHT22;24840;47.508;19.376;2022-09-03T08:31:33;24.00;76.00
39095;DHT22;24840;47.508;19.376;2022-09-03T08:34:01;23.20;77.10
39095;DHT22;24840;47.508;19.376;2022-09-03T08:36:45;24.00;77.50
39095;DHT22;24840;47.508;19.376;2022-09-03T08:39:12;24.70;77.20
39095;DHT22;24840;47.508;19.376;2022-09-03T08:44:29;25.30;78.20
39095;DHT22;24840;47.508;19.376;2022-09-03T08:52:40;26.00;70.90
39095;DHT22;24840;47.508;19.376;2022-09-03T08:57:48;25.40;70.20
39095;DHT22;24840;47.508;19.376;2022-09-03T09:00:16;25.30;73.30
39095;DHT22;24840;47.508;19.376;2022-09-03T09:23:48;26.80;69.20
39095;DHT22;24840;47.508;19.376;2022-09-03T09:29:08;27.10;68.80
39095;DHT22;24840;47.508;19.376;2022-09-03T09:31:39;26.70;67.90
39095;DHT22;24840;47.508;19.376;2022-09-03T09:34:06;26.70;68.40
39095;DHT22;24840;47.508;19.376;2022-09-03T09:36:52;26.10;66.00
39095;DHT22;24840;47.508;19.376;2022-09-03T09:39:19;26.90;65.90
39095;DHT22;24840;47.508;19.376;2022-09-03T09:42:05;26.80;64.10
39095;DHT22;24840;47.508;19.376;2022-09-03T09:44:34;26.30;64.70
39095;DHT22;24840;47.508;19.376;2022-09-03T09:47:37;26.50;64.00
39095;DHT22;24840;47.508;19.376;2022-09-03T09:50:18;26.80;67.50
39095;DHT22;24840;47.508;19.376;2022-09-03T09:52:46;27.60;62.90
39095;DHT22;24840;47.508;19.376;2022-09-03T09:58:22;27.10;61.10
39095;DHT22;24840;47.508;19.376;2022-09-03T10:01:21;27.30;60.60
39095;DHT22;24840;47.508;19.376;2022-09-03T10:03:55;27.20;64.10
39095;DHT22;24840;47.508;19.376;2022-09-03T10:09:31;29.00;58.30
39095;DHT22;24840;47.508;19.376;2022-09-03T10:12:04;29.10;58.70
39095;DHT22;24840;47.508;19.376;2022-09-03T10:23:24;29.40;57.50
39095;DHT22;24840;47.508;19.376;2022-09-03T10:29:48;29.00;57.80
39095;DHT22;24840;47.508;19.376;2022-09-03T10:35:34;30.00;58.00
39095;DHT22;24840;47.508;19.376;2022-09-03T10:38:31;30.40;57.50
39095;DHT22;24840;47.508;19.376;2022-09-03T10:44:17;29.30;55.20
39095;DHT22;24840;47.508;19.376;2022-09-03T10:59:58;30.10;56.30
39095;DHT22;24840;47.508;19.376;2022-09-03T11:06:12;29.50;57.60
39095;DHT22;24840;47.508;19.376;2022-09-03T11:08:52;29.70;53.40
39095;DHT22;24840;47.508;19.376;2022-09-03T11:11:33;30.90;53.80
39095;DHT22;24840;47.508;19.376;2022-09-03T11:14:08;30.90;50.60
39095;DHT22;24840;47.508;19.376;2022-09-03T11:20:22;29.10;55.70
39095;DHT22;24840;47.508;19.376;2022-09-03T11:22:54;30.20;53.20
39095;DHT22;24840;47.508;19.376;2022-09-03T11:31:44;30.70;52.40
39095;DHT22;24840;47.508;19.376;2022-09-03T11:34:15;31.70;49.70
39095;DHT22;24840;47.508;19.376;2022-09-03T11:40:12;30.40;50.20
39095;DHT22;24840;47.508;19.376;2022-09-03T11:42:43;28.70;52.10
39095;DHT22;24840;47.508;19.376;2022-09-03T11:52:07;29.60;52.20
39095;DHT22;24840;47.508;19.376;2022-09-03T11:54:45;30.90;51.50
39095;DHT22;24840;47.508;19.376;2022-09-03T12:00:47;28.90;53.00
39095;DHT22;24840;47.508;19.376;2022-09-03T12:03:26;27.50;54.50
39095;DHT22;24840;47.508;19.376;2022-09-03T12:12:39;30.60;51.00
39095;DHT22;24840;47.508;19.376;2022-09-03T12:22:21;30.60;49.40
39095;DHT22;24840;47.508;19.376;2022-09-03T12:24:48;31.60;48.00
39095;DHT22;24840;47.508;19.376;2022-09-03T12:30:37;31.00;49.60
39095;DHT22;24840;47.508;19.376;2022-09-03T12:33:08;32.60;48.60
39095;DHT22;24840;47.508;19.376;2022-09-03T12:39:11;30.80;49.20
39095;DHT22;24840;47.508;19.376;2022-09-03T12:41:53;31.40;49.40
39095;DHT22;24840;47.508;19.376;2022-09-03T12:44:38;31.20;48.10
39095;DHT22;24840;47.508;19.376;2022-09-03T12:50:35;30.60;48.80
39095;DHT22;24840;47.508;19.376;2022-09-03T12:53:07;30.10;48.80
39095;DHT22;24840;47.508;19.376;2022-09-03T13:02:12;30.70;49.20
39095;DHT22;24840;47.508;19.376;2022-09-03T13:04:40;30.80;49.10
39095;DHT22;24840;47.508;19.376;2022-09-03T13:10:32;30.10;50.40
39095;DHT22;24840;47.508;19.376;2022-09-03T13:17:05;30.70;50.90
39095;DHT22;24840;47.508;19.376;2022-09-03T13:19:55;31.80;48.30
39095;DHT22;24840;47.508;19.376;2022-09-03T13:32:29;30.90;48.90
39095;DHT22;24840;47.508;19.376;2022-09-03T13:38:28;29.80;49.10
39095;DHT22;24840;47.508;19.376;2022-09-03T13:43:53;30.40;48.90
39095;DHT22;24840;47.508;19.376;2022-09-03T13:50:10;31.40;48.10
39095;DHT22;24840;47.508;19.376;2022-09-03T13:52:49;30.80;46.30
39095;DHT22;24840;47.508;19.376;2022-09-03T14:02:27;30.20;48.80
39095;DHT22;24840;47.508;19.376;2022-09-03T14:05:00;30.80;48.30
39095;DHT22;24840;47.508;19.376;2022-09-03T14:20:27;30.00;48.80
39095;DHT22;24840;47.508;19.376;2022-09-03T14:29:50;28.70;48.90
39095;DHT22;24840;47.508;19.376;2022-09-03T14:32:23;29.40;48.50
39095;DHT22;24840;47.508;19.376;2022-09-03T15:05:20;28.70;49.30
39095;DHT22;24840;47.508;19.376;2022-09-03T15:07:58;28.90;50.50
39095;DHT22;24840;47.508;19.376;2022-09-03T15:10:51;29.00;50.30
39095;DHT22;24840;47.508;19.376;2022-09-03T15:13:32;28.60;51.00
39095;DHT22;24840;47.508;19.376;2022-09-03T15:33:23;27.90;52.10
39095;DHT22;24840;47.508;19.376;2022-09-03T15:42:21;27.20;51.60
39095;DHT22;24840;47.508;19.376;2022-09-03T15:44:54;26.50;52.80
39095;DHT22;24840;47.508;19.376;2022-09-03T15:50:52;25.90;53.30
39095;DHT22;24840;47.508;19.376;2022-09-03T15:53:32;26.00;53.80
39095;DHT22;24840;47.508;19.376;2022-09-03T16:41:42;23.60;64.50
39095;DHT22;24840;47.508;19.376;2022-09-03T16:54:22;22.80;68.90
39095;DHT22;24840;47.508;19.376;2022-09-03T17:00:16;22.00;70.70
39095;DHT22;24840;47.508;19.376;2022-09-03T17:33:14;20.10;80.10
39095;DHT22;24840;47.508;19.376;2022-09-03T17:52:29;19.20;85.80
39095;DHT22;24840;47.508;19.376;2022-09-03T17:55:12;19.00;85.70
39095;DHT22;24840;47.508;19.376;2022-09-03T17:57:45;18.90;86.40
39095;DHT22;24840;47.508;19.376;2022-09-03T18:03:43;18.80;87.30
39095;DHT22;24840;47.508;19.376;2022-09-03T18:09:54;18.50;89.30
39095;DHT22;24840;47.508;19.376;2022-09-03T18:12:37;18.30;90.50
39095;DHT22;24840;47.508;19.376;2022-09-03T18:21:50;18.00;91.70
39095;DHT22;24840;47.508;19.376;2022-09-03T18:24:42;17.80;92.00
39095;DHT22;24840;47.508;19.376;2022-09-03T18:30:50;17.70;92.70
39095;DHT22;24840;47.508;19.376;2022-09-03T18:33:36;17.60;93.00
39095;DHT22;24840;47.508;19.376;2022-09-03T18:39:45;17.50;93.50
39095;DHT22;24840;47.508;19.376;2022-09-03T18:46:11;17.20;94.30
39095;DHT22;24840;47.508;19.376;2022-09-03T18:49:26;17.10;95.10
39095;DHT22;24840;47.508;19.376;2022-09-03T19:22:17;16.10;98.70
39095;DHT22;24840;47.508;19.376;2022-09-03T19:25:10;16.00;98.70
39095;DHT22;24840;47.508;19.376;2022-09-03T19:27:59;16.00;99.10
39095;DHT22;24840;47.508;19.376;2022-09-03T19:40:33;15.60;99.90
39095;DHT22;24840;47.508;19.376;2022-09-03T19:43:45;15.60;99.90
39095;DHT22;24840;47.508;19.376;2022-09-03T19:50:29;15.40;99.90
39095;DHT22;24840;47.508;19.376;2022-09-03T19:56:51;15.40;99.90
39095;DHT22;24840;47.508;19.376;2022-09-03T19:59:43;15.30;99.90
39095;DHT22;24840;47.508;19.376;2022-09-03T20:02:28;15.30;99.90
39095;DHT22;24840;47.508;19.376;2022-09-03T20:05:17;15.20;99.90
39095;DHT22;24840;47.508;19.376;2022-09-03T20:08:03;15.10;99.90
39095;DHT22;24840;47.508;19.376;2022-09-03T20:10:51;15.10;99.90
39095;DHT22;24840;47.508;19.376;2022-09-03T20:13:19;15.00;99.90
39095;DHT22;24840;47.508;19.376;2022-09-03T20:26:03;14.70;99.90
39095;DHT22;24840;47.508;19.376;2022-09-03T20:31:56;14.50;99.90
39095;DHT22;24840;47.508;19.376;2022-09-03T20:40:45;14.50;99.90
39095;DHT22;24840;47.508;19.376;2022-09-03T20:55:49;14.30;99.90
39095;DHT22;24840;47.508;19.376;2022-09-03T20:58:21;14.20;99.90
39095;DHT22;24840;47.508;19.376;2022-09-03T21:01:13;14.00;99.90
39095;DHT22;24840;47.508;19.376;2022-09-03T21:03:49;14.00;99.90
39095;DHT22;24840;47.508;19.376;2022-09-03T21:24:29;13.80;99.90
39095;DHT22;24840;47.508;19.376;2022-09-03T21:27:04;13.90;99.90
39095;DHT22;24840;47.508;19.376;2022-09-03T21:29:43;14.00;99.90
39095;DHT22;24840;47.508;19.376;2022-09-03T21:32:17;14.00;99.90
39095;DHT22;24840;47.508;19.376;2022-09-03T21:37:44;13.90;99.90
39095;DHT22;24840;47.508;19.376;2022-09-03T21:40:12;14.00;99.90
39095;DHT22;24840;47.508;19.376;2022-09-03T21:43:11;14.00;99.90
39095;DHT22;24840;47.508;19.376;2022-09-03T21:52:20;13.80;99.90
39095;DHT22;24840;47.508;19.376;2022-09-03T21:54:47;13.80;99.90
39095;DHT22;24840;47.508;19.376;2022-09-03T22:00:35;13.80;99.90
39095;DHT22;24840;47.508;19.376;2022-09-03T22:06:42;13.70;99.90
39095;DHT22;24840;47.508;19.376;2022-09-03T22:09:17;13.80;99.90
39095;DHT22;24840;47.508;19.376;2022-09-03T22:11:57;13.70;99.90
39095;DHT22;24840;47.508;19.376;2022-09-03T22:14:28;13.60;99.90
39095;DHT22;24840;47.508;19.376;2022-09-03T22:20:04;13.60;99.90
39095;DHT22;24840;47.508;19.376;2022-09-03T22:22:59;13.70;99.90
39095;DHT22;24840;47.508;19.376;2022-09-03T22:34:55;13.70;99.90
39095;DHT22;24840;47.508;19.376;2022-09-03T22:44:42;13.50;99.90
39095;DHT22;24840;47.508;19.376;2022-09-03T22:50:35;13.40;99.90
39095;DHT22;24840;47.508;19.376;2022-09-03T22:53:33;13.50;99.90
39095;DHT22;24840;47.508;19.376;2022-09-03T23:00:04;13.50;99.90
39095;DHT22;24840;47.508;19.376;2022-09-03T23:02:34;13.50;99.90
39095;DHT22;24840;47.508;19.376;2022-09-03T23:12:00;13.50;99.90
39095;DHT22;24840;47.508;19.376;2022-09-03T23:14:37;13.40;99.90
39095;DHT22;24840;47.508;19.376;2022-09-03T23:21:33;13.40;99.90
39095;DHT22;24840;47.508;19.376;2022-09-03T23:23:34;13.30;99.90
39095;DHT22;24840;47.508;19.376;2022-09-03T23:29:55;13.30;99.90
39095;DHT22;24840;47.508;19.376;2022-09-03T23:32:22;13.40;99.90
39095;DHT22;24840;47.508;19.376;2022-09-03T23:34:48;13.20;99.90
39095;DHT22;24840;47.508;19.376;2022-09-03T23:40:47;13.10;99.90
39095;DHT22;24840;47.508;19.376;2022-09-03T23:43:26;13.10;99.90
